createdAt,value
2023-05-07T00:01:01.181Z,15.82
2023-05-07T00:03:29.063Z,15.77
2023-05-07T00:05:57.526Z,15.77
2023-05-07T00:08:25.244Z,15.81
2023-05-07T00:10:53.367Z,15.67
2023-05-07T00:13:21.371Z,15.61
2023-05-07T00:15:50.616Z,15.55
2023-05-07T00:18:21.943Z,15.50
2023-05-07T00:20:49.579Z,15.43
2023-05-07T00:23:17.314Z,15.44
2023-05-07T00:25:45.150Z,15.37
2023-05-07T00:28:12.962Z,15.29
2023-05-07T00:30:40.889Z,15.29
2023-05-07T00:33:10.219Z,15.25
2023-05-07T00:35:38.054Z,15.21
2023-05-07T00:38:05.999Z,15.21
2023-05-07T00:40:34.146Z,15.23
2023-05-07T00:43:02.405Z,15.22
2023-05-07T00:45:30.851Z,15.16
2023-05-07T00:48:02.121Z,15.13
2023-05-07T00:50:32.359Z,15.17
2023-05-07T00:53:02.100Z,15.07
2023-05-07T00:55:30.723Z,15.04
2023-05-07T00:58:00.050Z,14.98
2023-05-07T01:00:28.079Z,14.94
2023-05-07T01:02:59.907Z,14.91
2023-05-07T01:05:32.799Z,14.87
2023-05-07T01:08:03.914Z,14.88
2023-05-07T01:10:35.671Z,14.84
2023-05-07T01:13:04.168Z,14.92
2023-05-07T01:15:32.180Z,14.82
2023-05-07T01:18:02.945Z,14.87
2023-05-07T01:20:35.626Z,14.83
2023-05-07T01:23:06.446Z,15.01
2023-05-07T01:25:34.294Z,14.96
2023-05-07T01:28:03.815Z,14.96
2023-05-07T01:30:38.038Z,14.91
2023-05-07T01:33:12.958Z,14.95
2023-05-07T01:35:51.110Z,14.84
2023-05-07T01:38:21.134Z,14.85
2023-05-07T01:40:49.313Z,14.77
2023-05-07T01:43:17.404Z,14.82
2023-05-07T01:45:46.716Z,14.88
2023-05-07T01:48:16.306Z,14.77
2023-05-07T01:50:45.404Z,14.74
2023-05-07T01:53:13.989Z,14.76
2023-05-07T01:55:43.372Z,14.70
2023-05-07T01:58:11.797Z,14.66
2023-05-07T02:00:39.680Z,14.73
2023-05-07T02:03:08.887Z,14.69
2023-05-07T02:05:45.465Z,14.71
2023-05-07T02:08:20.725Z,14.76
2023-05-07T02:10:50.886Z,14.81
2023-05-07T02:13:18.801Z,14.74
2023-05-07T02:15:50.206Z,14.68
2023-05-07T02:18:19.157Z,14.65
2023-05-07T02:20:47.113Z,14.57
2023-05-07T02:23:15.435Z,14.47
2023-05-07T02:25:43.452Z,14.48
2023-05-07T02:28:12.691Z,14.55
2023-05-07T02:30:59.467Z,14.53
2023-05-07T02:33:27.433Z,14.48
2023-05-07T02:35:55.656Z,14.49
2023-05-07T02:38:24.336Z,14.42
2023-05-07T02:40:52.055Z,14.43
2023-05-07T02:43:21.164Z,14.48
2023-05-07T02:45:50.991Z,14.40
2023-05-07T02:48:18.771Z,14.38
2023-05-07T02:50:46.676Z,14.34
2023-05-07T02:53:16.460Z,14.33
2023-05-07T02:55:44.265Z,14.24
2023-05-07T02:58:11.893Z,14.28
2023-05-07T03:00:43.427Z,14.24
2023-05-07T03:03:21.972Z,14.26
2023-05-07T03:05:50.971Z,14.25
2023-05-07T03:08:18.914Z,14.28
2023-05-07T03:10:47.294Z,14.21
2023-05-07T03:13:15.185Z,14.14
2023-05-07T03:15:44.546Z,14.19
2023-05-07T03:18:12.791Z,14.14
2023-05-07T03:20:40.785Z,14.17
2023-05-07T03:23:09.098Z,14.22
2023-05-07T03:25:37.726Z,14.05
2023-05-07T03:28:06.534Z,14.15
2023-05-07T03:30:47.837Z,14.07
2023-05-07T03:33:16.429Z,14.03
2023-05-07T03:35:45.240Z,14.11
2023-05-07T03:38:16.048Z,14.03
2023-05-07T03:40:44.149Z,14.04
2023-05-07T03:43:13.838Z,14.03
2023-05-07T03:45:47.533Z,14.05
2023-05-07T03:48:22.870Z,14.01
2023-05-07T03:50:52.671Z,14.02
2023-05-07T03:53:21.782Z,14.06
2023-05-07T03:55:49.898Z,14.07
2023-05-07T03:58:18.774Z,14.05
2023-05-07T04:00:48.249Z,14.05
2023-05-07T04:03:28.819Z,14.10
2023-05-07T04:05:59.705Z,14.12
2023-05-07T04:08:27.622Z,14.17
2023-05-07T04:10:57.724Z,14.25
2023-05-07T04:13:27.567Z,14.19
2023-05-07T04:15:58.211Z,14.21
2023-05-07T04:18:28.058Z,14.22
2023-05-07T04:20:55.932Z,14.20
2023-05-07T04:23:23.835Z,14.30
2023-05-07T04:25:53.006Z,14.22
2023-05-07T04:28:29.302Z,14.23
2023-05-07T04:30:58.380Z,14.23
2023-05-07T04:33:26.334Z,14.24
2023-05-07T04:35:54.030Z,14.32
2023-05-07T04:38:22.858Z,14.26
2023-05-07T04:40:52.920Z,14.33
2023-05-07T04:43:24.683Z,14.36
2023-05-07T04:45:53.829Z,14.37
2023-05-07T04:48:26.366Z,14.41
2023-05-07T04:50:55.020Z,14.44
2023-05-07T04:53:23.983Z,14.54
2023-05-07T04:55:57.762Z,14.49
2023-05-07T04:58:27.097Z,14.59
2023-05-07T05:00:55.046Z,14.66
2023-05-07T05:03:23.228Z,14.74
2023-05-07T05:05:53.252Z,14.79
2023-05-07T05:08:23.569Z,14.79
2023-05-07T05:10:52.495Z,14.89
2023-05-07T05:13:20.850Z,14.92
2023-05-07T05:15:49.348Z,14.91
2023-05-07T05:18:17.190Z,14.98
2023-05-07T05:20:44.904Z,15.06
2023-05-07T05:23:15.727Z,15.06
2023-05-07T05:25:43.492Z,15.07
2023-05-07T05:28:13.551Z,15.06
2023-05-07T05:30:41.383Z,15.19
2023-05-07T05:33:10.540Z,15.32
2023-05-07T05:35:38.335Z,15.32
2023-05-07T05:38:11.521Z,15.29
2023-05-07T05:40:41.745Z,15.26
2023-05-07T05:43:10.300Z,15.28
2023-05-07T05:45:39.435Z,15.26
2023-05-07T05:48:09.690Z,15.18
2023-05-07T05:50:37.712Z,15.26
2023-05-07T05:53:06.673Z,15.25
2023-05-07T05:55:35.747Z,15.32
2023-05-07T05:58:07.700Z,15.32
2023-05-07T06:00:39.679Z,15.32
2023-05-07T06:03:08.522Z,15.61
2023-05-07T06:05:37.794Z,15.52
2023-05-07T06:08:06.574Z,15.53
2023-05-07T06:10:37.922Z,15.51
2023-05-07T06:13:10.069Z,15.53
2023-05-07T06:15:38.978Z,15.72
2023-05-07T06:18:11.449Z,15.71
2023-05-07T06:20:39.198Z,15.70
2023-05-07T06:23:12.819Z,15.70
2023-05-07T06:25:40.909Z,15.72
2023-05-07T06:28:12.964Z,15.86
2023-05-07T06:30:43.122Z,15.88
2023-05-07T06:33:11.835Z,15.84
2023-05-07T06:35:39.972Z,15.89
2023-05-07T06:38:08.106Z,15.89
2023-05-07T06:40:36.836Z,15.87
2023-05-07T06:43:06.418Z,15.83
2023-05-07T06:45:49.343Z,16.01
2023-05-07T06:48:17.563Z,15.99
2023-05-07T06:51:01.774Z,16.25
2023-05-07T06:53:32.140Z,16.31
2023-05-07T06:56:02.041Z,16.33
2023-05-07T06:58:30.892Z,16.34
2023-05-07T07:01:00.448Z,16.32
2023-05-07T07:03:28.535Z,16.39
2023-05-07T07:05:57.507Z,16.54
2023-05-07T07:08:25.778Z,16.76
2023-05-07T07:10:54.533Z,16.84
2023-05-07T07:13:22.425Z,16.77
2023-05-07T07:15:50.237Z,16.78
2023-05-07T07:18:21.156Z,16.75
2023-05-07T07:20:50.195Z,16.72
2023-05-07T07:23:18.074Z,16.71
2023-05-07T07:25:45.856Z,16.80
2023-05-07T07:28:13.886Z,16.90
2023-05-07T07:30:41.839Z,16.82
2023-05-07T07:33:10.595Z,16.92
2023-05-07T07:35:41.071Z,16.77
2023-05-07T07:38:09.110Z,16.84
2023-05-07T07:40:37.658Z,16.77
2023-05-07T07:43:07.377Z,16.72
2023-05-07T07:45:35.944Z,16.62
2023-05-07T07:48:04.443Z,16.53
2023-05-07T07:50:44.699Z,16.55
2023-05-07T07:53:17.363Z,16.47
2023-05-07T07:55:46.150Z,16.47
2023-05-07T07:58:17.554Z,16.60
2023-05-07T08:00:45.680Z,16.62
2023-05-07T08:03:15.543Z,16.82
2023-05-07T08:05:46.651Z,16.97
2023-05-07T08:08:14.390Z,17.17
2023-05-07T08:10:45.683Z,17.25
2023-05-07T08:13:21.746Z,17.26
2023-05-07T08:15:49.610Z,17.30
2023-05-07T08:18:17.836Z,17.49
2023-05-07T08:20:46.969Z,17.45
2023-05-07T08:23:20.392Z,17.49
2023-05-07T08:25:50.969Z,17.68
2023-05-07T08:28:20.568Z,17.75
2023-05-07T08:30:49.457Z,17.86
2023-05-07T08:33:17.202Z,17.97
2023-05-07T08:35:45.364Z,18.04
2023-05-07T08:38:15.614Z,17.93
2023-05-07T08:40:44.630Z,17.98
2023-05-07T08:43:21.836Z,18.08
2023-05-07T08:45:52.819Z,18.22
2023-05-07T08:48:24.497Z,18.32
2023-05-07T08:51:01.280Z,18.44
2023-05-07T08:53:29.252Z,18.61
2023-05-07T08:55:57.924Z,18.74
2023-05-07T08:58:26.958Z,18.68
2023-05-07T09:00:56.049Z,18.83
2023-05-07T09:03:25.026Z,18.80
2023-05-07T09:05:55.363Z,18.96
2023-05-07T09:08:28.461Z,19.06
2023-05-07T09:10:59.364Z,19.12
2023-05-07T09:13:30.179Z,19.11
2023-05-07T09:15:59.752Z,19.08
2023-05-07T09:18:27.590Z,19.24
2023-05-07T09:20:57.514Z,19.38
2023-05-07T09:23:25.738Z,19.49
2023-05-07T09:26:02.401Z,19.63
2023-05-07T09:28:35.566Z,19.81
2023-05-07T09:31:04.076Z,19.76
2023-05-07T09:33:32.102Z,19.59
2023-05-07T09:36:06.039Z,19.54
2023-05-07T09:38:35.417Z,19.82
2023-05-07T09:41:07.351Z,20.37
2023-05-07T09:43:42.709Z,21.00
2023-05-07T09:46:15.062Z,21.16
2023-05-07T09:48:50.278Z,21.36
2023-05-07T09:51:27.825Z,21.58
2023-05-07T09:53:58.045Z,21.79
2023-05-07T09:56:27.642Z,22.04
2023-05-07T09:58:59.533Z,22.07
2023-05-07T10:01:28.990Z,22.35
2023-05-07T10:03:58.166Z,22.71
2023-05-07T10:06:26.916Z,22.38
2023-05-07T10:08:55.880Z,22.38
2023-05-07T10:11:24.240Z,22.32
2023-05-07T10:13:54.502Z,22.21
2023-05-07T10:16:24.810Z,21.84
2023-05-07T10:18:53.673Z,21.46
2023-05-07T10:21:25.827Z,21.45
2023-05-07T10:24:02.027Z,21.33
2023-05-07T10:26:34.573Z,21.21
2023-05-07T10:29:07.793Z,21.25
2023-05-07T10:31:58.529Z,21.13
2023-05-07T10:34:32.325Z,21.49
2023-05-07T10:37:00.608Z,21.73
2023-05-07T10:39:29.439Z,21.88
2023-05-07T10:41:57.342Z,21.77
2023-05-07T10:44:30.006Z,22.21
2023-05-07T10:47:11.349Z,22.35
2023-05-07T10:50:13.172Z,22.93
2023-05-07T10:52:42.572Z,23.22
2023-05-07T10:55:23.252Z,23.58
2023-05-07T10:58:31.876Z,23.80
2023-05-07T11:01:11.954Z,24.08
2023-05-07T11:04:15.273Z,23.85
2023-05-07T11:07:22.532Z,24.61
2023-05-07T11:10:02.454Z,24.41
2023-05-07T11:12:55.602Z,24.03
2023-05-07T11:15:37.688Z,24.11
2023-05-07T11:18:12.231Z,23.85
2023-05-07T11:20:57.106Z,23.79
2023-05-07T11:23:57.407Z,23.86
2023-05-07T11:26:46.930Z,24.11
2023-05-07T11:29:18.877Z,24.98
2023-05-07T11:31:53.480Z,25.11
2023-05-07T11:34:24.310Z,24.83
2023-05-07T11:36:56.002Z,24.90
2023-05-07T11:39:36.636Z,24.99
2023-05-07T11:42:05.011Z,25.12
2023-05-07T11:44:47.145Z,25.19
2023-05-07T11:47:19.735Z,25.32
2023-05-07T11:49:49.504Z,25.78
2023-05-07T11:52:20.050Z,25.97
2023-05-07T11:54:51.638Z,25.68
2023-05-07T11:57:19.651Z,25.80
2023-05-07T11:59:48.474Z,25.29
2023-05-07T12:02:16.623Z,25.29
2023-05-07T12:04:44.456Z,25.21
2023-05-07T12:07:13.995Z,25.76
2023-05-07T12:09:43.418Z,25.47
2023-05-07T12:12:11.265Z,25.71
2023-05-07T12:14:42.346Z,25.74
2023-05-07T12:17:11.534Z,25.51
2023-05-07T12:19:40.995Z,25.89
2023-05-07T12:22:10.607Z,25.94
2023-05-07T12:24:50.916Z,26.05
2023-05-07T12:27:19.753Z,25.91
2023-05-07T12:29:48.877Z,24.91
2023-05-07T12:32:17.662Z,24.01
2023-05-07T12:34:46.161Z,23.89
2023-05-07T12:37:14.665Z,23.84
2023-05-07T12:39:49.468Z,23.75
2023-05-07T12:42:18.116Z,23.60
2023-05-07T12:44:48.358Z,23.84
2023-05-07T12:47:17.314Z,23.68
2023-05-07T12:49:46.916Z,23.59
2023-05-07T12:52:14.995Z,23.20
2023-05-07T12:54:43.030Z,23.06
2023-05-07T12:57:12.440Z,22.88
2023-05-07T12:59:42.102Z,22.75
2023-05-07T13:02:10.970Z,22.65
2023-05-07T13:04:41.333Z,22.74
2023-05-07T13:07:09.289Z,22.83
2023-05-07T13:09:38.020Z,22.71
2023-05-07T13:12:07.150Z,22.65
2023-05-07T13:14:36.985Z,22.66
2023-05-07T13:17:04.992Z,22.63
2023-05-07T13:19:32.955Z,22.63
2023-05-07T13:22:01.071Z,22.74
2023-05-07T13:24:29.248Z,22.57
2023-05-07T13:26:57.320Z,22.63
2023-05-07T13:29:29.569Z,22.73
2023-05-07T13:31:59.367Z,22.69
2023-05-07T13:34:27.448Z,22.51
2023-05-07T13:36:56.099Z,22.46
2023-05-07T13:39:23.863Z,22.52
2023-05-07T13:41:51.633Z,22.31
2023-05-07T13:44:19.661Z,22.33
2023-05-07T13:46:47.712Z,22.24
2023-05-07T13:49:16.814Z,22.14
2023-05-07T13:51:44.496Z,22.17
2023-05-07T13:54:12.807Z,22.24
2023-05-07T13:56:41.234Z,22.00
2023-05-07T13:59:09.300Z,21.88
2023-05-07T14:01:36.990Z,21.76
2023-05-07T14:04:04.989Z,21.75
2023-05-07T14:06:34.353Z,21.68
2023-05-07T14:09:02.317Z,21.67
2023-05-07T14:11:30.445Z,21.76
2023-05-07T14:13:59.439Z,21.63
2023-05-07T14:16:27.317Z,21.56
2023-05-07T14:18:58.057Z,21.57
2023-05-07T14:21:26.313Z,21.49
2023-05-07T14:23:57.485Z,21.41
2023-05-07T14:26:25.242Z,21.47
2023-05-07T14:28:53.136Z,21.26
2023-05-07T14:31:21.442Z,21.14
2023-05-07T14:33:50.782Z,21.11
2023-05-07T14:36:18.503Z,21.05
2023-05-07T14:38:46.288Z,20.97
2023-05-07T14:41:15.919Z,20.88
2023-05-07T14:43:50.631Z,20.82
2023-05-07T14:46:19.444Z,20.77
2023-05-07T14:48:47.635Z,20.70
2023-05-07T14:51:15.749Z,20.64
2023-05-07T14:53:44.298Z,20.63
2023-05-07T14:56:12.571Z,20.53
2023-05-07T14:58:41.893Z,20.45
2023-05-07T15:01:10.127Z,20.35
2023-05-07T15:03:38.563Z,20.29
2023-05-07T15:06:06.657Z,20.29
2023-05-07T15:08:34.409Z,20.30
2023-05-07T15:11:02.283Z,20.43
2023-05-07T15:13:30.185Z,20.02
2023-05-07T15:16:00.287Z,19.74
2023-05-07T15:18:28.190Z,19.42
2023-05-07T15:20:59.304Z,19.03
2023-05-07T15:23:27.178Z,18.62
2023-05-07T15:25:55.022Z,18.29
2023-05-07T15:28:23.639Z,18.29
2023-05-07T15:30:52.385Z,18.39
2023-05-07T15:33:23.200Z,18.07
2023-05-07T15:35:50.908Z,17.90
2023-05-07T15:38:18.808Z,17.74
2023-05-07T15:40:46.662Z,17.47
2023-05-07T15:43:15.215Z,17.47
2023-05-07T15:45:44.235Z,17.33
2023-05-07T15:48:13.097Z,17.20
2023-05-07T15:50:42.676Z,17.10
2023-05-07T15:53:10.815Z,17.09
2023-05-07T15:55:38.781Z,17.12
2023-05-07T15:58:06.890Z,17.06
2023-05-07T16:00:36.102Z,17.15
2023-05-07T16:03:04.059Z,17.11
2023-05-07T16:05:32.201Z,17.12
2023-05-07T16:08:01.427Z,17.10
2023-05-07T16:10:29.358Z,16.98
2023-05-07T16:12:58.344Z,16.98
2023-05-07T16:15:26.241Z,16.93
2023-05-07T16:17:57.961Z,16.90
2023-05-07T16:20:30.360Z,16.88
2023-05-07T16:22:58.521Z,16.91
2023-05-07T16:25:27.676Z,16.82
2023-05-07T16:27:55.608Z,16.84
2023-05-07T16:30:23.763Z,16.77
2023-05-07T16:32:51.814Z,16.68
2023-05-07T16:35:20.513Z,16.54
2023-05-07T16:37:48.237Z,16.48
2023-05-07T16:40:16.156Z,16.38
2023-05-07T16:42:45.460Z,16.51
2023-05-07T16:45:13.641Z,16.40
2023-05-07T16:47:41.725Z,16.39
2023-05-07T16:50:10.335Z,16.46
2023-05-07T16:52:38.050Z,16.54
2023-05-07T16:55:07.123Z,16.43
2023-05-07T16:57:35.038Z,16.42
2023-05-07T17:00:07.735Z,16.35
2023-05-07T17:02:36.015Z,16.34
2023-05-07T17:05:06.436Z,16.39
2023-05-07T17:07:34.259Z,16.34
2023-05-07T17:10:03.217Z,16.32
2023-05-07T17:12:31.589Z,16.31
2023-05-07T17:14:59.365Z,16.33
2023-05-07T17:17:28.623Z,16.31
2023-05-07T17:19:56.457Z,16.19
2023-05-07T17:22:25.030Z,16.06
2023-05-07T17:24:52.919Z,16.12
2023-05-07T17:27:20.631Z,16.28
2023-05-07T17:29:48.255Z,16.48
2023-05-07T17:32:16.132Z,16.48
2023-05-07T17:34:45.536Z,16.38
2023-05-07T17:37:13.201Z,16.33
2023-05-07T17:39:40.952Z,16.29
2023-05-07T17:42:08.844Z,16.29
2023-05-07T17:44:37.068Z,16.37
2023-05-07T17:47:04.940Z,16.39
2023-05-07T17:49:32.575Z,16.32
2023-05-07T17:52:02.241Z,16.35
2023-05-07T17:54:30.552Z,16.32
2023-05-07T17:56:58.607Z,16.27
2023-05-07T17:59:26.305Z,16.23
2023-05-07T18:01:54.201Z,16.17
2023-05-07T18:04:24.740Z,16.14
2023-05-07T18:06:52.436Z,16.09
2023-05-07T18:09:21.983Z,16.04
2023-05-07T18:11:49.800Z,16.10
2023-05-07T18:14:17.710Z,16.12
2023-05-07T18:16:45.536Z,16.04
2023-05-07T18:19:13.547Z,16.07
2023-05-07T18:21:41.331Z,16.06
2023-05-07T18:24:11.097Z,16.14
2023-05-07T18:26:40.509Z,16.21
2023-05-07T18:29:08.463Z,16.08
2023-05-07T18:31:37.813Z,16.16
2023-05-07T18:34:06.581Z,16.10
2023-05-07T18:36:35.639Z,16.13
2023-05-07T18:39:03.991Z,16.17
2023-05-07T18:41:32.311Z,16.29
2023-05-07T18:44:01.748Z,16.12
2023-05-07T18:46:30.380Z,16.06
2023-05-07T18:48:58.413Z,16.06
2023-05-07T18:51:27.269Z,16.05
2023-05-07T18:53:55.191Z,16.08
2023-05-07T18:56:22.895Z,16.05
2023-05-07T18:58:50.552Z,16.02
2023-05-07T19:01:19.698Z,15.98
2023-05-07T19:03:47.513Z,16.00
2023-05-07T19:06:15.372Z,15.87
2023-05-07T19:08:43.207Z,15.83
2023-05-07T19:11:10.985Z,15.83
2023-05-07T19:13:38.965Z,15.83
2023-05-07T19:16:10.149Z,15.76
2023-05-07T19:18:39.329Z,15.84
2023-05-07T19:21:08.364Z,15.82
2023-05-07T19:23:41.505Z,15.90
2023-05-07T19:26:10.041Z,15.89
2023-05-07T19:28:42.307Z,15.83
2023-05-07T19:31:19.505Z,15.85
2023-05-07T19:33:49.300Z,15.76
2023-05-07T19:36:17.874Z,15.69
2023-05-07T19:38:46.828Z,15.59
2023-05-07T19:41:14.490Z,15.54
2023-05-07T19:43:42.973Z,15.58
2023-05-07T19:46:12.085Z,15.45
2023-05-07T19:48:40.388Z,15.48
2023-05-07T19:51:09.570Z,15.53
2023-05-07T19:53:38.049Z,15.42
2023-05-07T19:56:07.517Z,15.36
2023-05-07T19:58:36.289Z,15.45
2023-05-07T20:01:06.178Z,15.47
2023-05-07T20:03:35.126Z,15.41
2023-05-07T20:06:03.334Z,15.42
2023-05-07T20:08:32.455Z,15.38
2023-05-07T20:11:00.692Z,15.43
2023-05-07T20:13:28.894Z,15.35
2023-05-07T20:16:00.163Z,15.35
2023-05-07T20:18:28.593Z,15.35
2023-05-07T20:20:56.763Z,15.31
2023-05-07T20:23:24.952Z,15.30
2023-05-07T20:25:53.999Z,15.36
2023-05-07T20:28:21.675Z,15.35
2023-05-07T20:30:49.547Z,15.44
2023-05-07T20:33:17.564Z,15.49
2023-05-07T20:35:45.915Z,15.37
2023-05-07T20:38:13.955Z,15.36
2023-05-07T20:40:42.337Z,15.35
2023-05-07T20:43:11.595Z,15.40
2023-05-07T20:45:39.967Z,15.41
2023-05-07T20:48:09.575Z,15.40
2023-05-07T20:50:37.389Z,15.37
2023-05-07T20:53:05.016Z,15.37
2023-05-07T20:55:32.728Z,15.41
2023-05-07T20:58:00.702Z,15.36
2023-05-07T21:00:29.899Z,15.32
2023-05-07T21:02:57.946Z,15.27
2023-05-07T21:05:25.856Z,15.24
2023-05-07T21:07:53.523Z,15.25
2023-05-07T21:10:21.423Z,15.25
2023-05-07T21:12:49.393Z,15.26
2023-05-07T21:15:17.366Z,15.29
2023-05-07T21:17:46.650Z,15.28
2023-05-07T21:20:14.678Z,15.32
2023-05-07T21:22:42.736Z,15.25
2023-05-07T21:25:13.307Z,15.31
2023-05-07T21:27:41.299Z,15.27
2023-05-07T21:30:10.686Z,15.22
2023-05-07T21:32:38.957Z,15.25
2023-05-07T21:35:12.345Z,15.26
2023-05-07T21:37:40.371Z,15.25
2023-05-07T21:40:09.467Z,15.24
2023-05-07T21:42:37.187Z,15.20
2023-05-07T21:45:06.718Z,15.19
2023-05-07T21:47:34.998Z,15.27
2023-05-07T21:50:02.923Z,15.26
2023-05-07T21:52:31.888Z,15.19
2023-05-07T21:54:59.704Z,15.18
2023-05-07T21:57:27.483Z,15.18
2023-05-07T21:59:55.829Z,15.17
2023-05-07T22:02:23.738Z,15.13
2023-05-07T22:04:51.759Z,15.17
2023-05-07T22:07:19.501Z,15.16
2023-05-07T22:09:48.668Z,15.17
2023-05-07T22:12:16.542Z,15.22
2023-05-07T22:14:44.967Z,15.21
2023-05-07T22:17:13.015Z,15.20
2023-05-07T22:19:40.728Z,15.16
2023-05-07T22:22:08.519Z,15.14
2023-05-07T22:24:36.452Z,15.08
2023-05-07T22:27:05.503Z,15.13
2023-05-07T22:29:33.201Z,15.14
2023-05-07T22:32:01.227Z,15.14
2023-05-07T22:34:29.011Z,15.08
2023-05-07T22:36:58.329Z,15.11
2023-05-07T22:39:26.006Z,15.10
2023-05-07T22:41:53.678Z,15.09
2023-05-07T22:44:22.736Z,15.10
2023-05-07T22:46:50.852Z,15.11
2023-05-07T22:49:18.556Z,15.04
2023-05-07T22:51:46.335Z,15.06
2023-05-07T22:54:14.036Z,15.12
2023-05-07T22:56:41.965Z,15.14
2023-05-07T22:59:09.672Z,15.15
2023-05-07T23:01:39.209Z,15.09
2023-05-07T23:04:07.032Z,15.09
2023-05-07T23:06:34.637Z,15.07
2023-05-07T23:09:02.702Z,15.05
2023-05-07T23:11:31.762Z,15.07
2023-05-07T23:13:59.376Z,15.08
2023-05-07T23:16:28.723Z,15.10
2023-05-07T23:18:57.901Z,15.02
2023-05-07T23:21:25.820Z,15.09
2023-05-07T23:23:54.330Z,15.08
2023-05-07T23:26:22.168Z,15.09
2023-05-07T23:28:50.119Z,15.11
2023-05-07T23:31:18.129Z,15.11
2023-05-07T23:33:46.043Z,15.11
2023-05-07T23:36:15.463Z,15.11
2023-05-07T23:38:43.452Z,15.13
2023-05-07T23:41:11.501Z,15.25
2023-05-07T23:43:39.335Z,15.18
2023-05-07T23:46:08.026Z,15.17
2023-05-07T23:48:36.128Z,15.14
2023-05-07T23:51:03.910Z,15.15
2023-05-07T23:53:33.152Z,15.16
2023-05-07T23:56:01.008Z,15.17
2023-05-07T23:58:28.746Z,15.15
